createdAt,value
2018-09-30T00:01:29.381Z,58.40
2018-09-30T00:03:57.769Z,58.53
2018-09-30T00:06:26.113Z,58.63
2018-09-30T00:08:54.419Z,58.88
2018-09-30T00:11:22.685Z,58.98
2018-09-30T00:13:51.025Z,59.08
2018-09-30T00:16:19.361Z,58.98
2018-09-30T00:18:47.700Z,58.73
2018-09-30T00:21:16.039Z,58.75
2018-09-30T00:23:49.637Z,58.64
2018-09-30T00:26:23.067Z,58.72
2018-09-30T00:28:51.330Z,58.62
2018-09-30T00:31:20.203Z,58.51
2018-09-30T00:33:53.946Z,58.82
2018-09-30T00:36:22.246Z,58.24
2018-09-30T00:38:50.509Z,58.13
2018-09-30T00:41:18.828Z,58.09
2018-09-30T00:43:47.089Z,58.24
2018-09-30T00:46:15.349Z,58.74
2018-09-30T00:48:43.777Z,58.62
2018-09-30T00:51:12.066Z,58.36
2018-09-30T00:53:40.398Z,58.74
2018-09-30T00:56:08.702Z,59.14
2018-09-30T00:58:37.004Z,59.33
2018-09-30T01:01:05.310Z,59.03
2018-09-30T01:03:33.602Z,59.09
2018-09-30T01:06:01.890Z,58.84
2018-09-30T01:08:30.157Z,58.79
2018-09-30T01:10:58.499Z,58.83
2018-09-30T01:13:26.790Z,58.78
2018-09-30T01:15:55.042Z,58.83
2018-09-30T01:18:23.334Z,58.96
2018-09-30T01:20:51.599Z,59.25
2018-09-30T01:23:19.866Z,59.09
2018-09-30T01:25:48.393Z,59.02
2018-09-30T01:28:16.650Z,58.99
2018-09-30T01:30:44.907Z,59.07
2018-09-30T01:33:13.278Z,59.04
2018-09-30T01:35:41.562Z,59.19
2018-09-30T01:38:09.838Z,59.13
2018-09-30T01:40:38.157Z,59.24
2018-09-30T01:43:06.409Z,59.37
2018-09-30T01:45:34.689Z,59.16
2018-09-30T01:48:02.969Z,59.16
2018-09-30T01:50:31.264Z,59.10
2018-09-30T01:52:59.579Z,59.17
2018-09-30T01:55:28.241Z,59.12
2018-09-30T01:57:56.612Z,59.57
2018-09-30T02:00:24.854Z,59.68
2018-09-30T02:02:53.154Z,59.57
2018-09-30T02:05:21.406Z,59.37
2018-09-30T02:07:49.709Z,59.17
2018-09-30T02:10:18.515Z,59.04
2018-09-30T02:12:46.882Z,58.98
2018-09-30T02:15:15.178Z,59.34
2018-09-30T02:17:43.590Z,59.56
2018-09-30T02:20:11.861Z,59.42
2018-09-30T02:22:40.455Z,59.38
2018-09-30T02:25:08.778Z,59.56
2018-09-30T02:27:37.062Z,59.46
2018-09-30T02:30:05.808Z,59.82
2018-09-30T02:32:34.123Z,59.85
2018-09-30T02:35:02.475Z,60.07
2018-09-30T02:37:30.745Z,60.35
2018-09-30T02:39:59.147Z,60.26
2018-09-30T02:42:27.464Z,59.86
2018-09-30T02:44:55.743Z,59.83
2018-09-30T02:47:24.032Z,59.62
2018-09-30T02:49:52.304Z,59.43
2018-09-30T02:52:20.588Z,59.41
2018-09-30T02:54:48.890Z,59.63
2018-09-30T02:57:17.355Z,59.67
2018-09-30T02:59:45.626Z,59.92
2018-09-30T03:02:14.043Z,59.80
2018-09-30T03:04:42.310Z,59.97
2018-09-30T03:07:15.806Z,60.16
2018-09-30T03:09:44.323Z,60.00
2018-09-30T03:12:12.638Z,60.11
2018-09-30T03:14:41.027Z,59.87
2018-09-30T03:17:09.326Z,60.33
2018-09-30T03:19:37.596Z,60.36
2018-09-30T03:22:06.138Z,60.37
2018-09-30T03:24:34.394Z,60.88
2018-09-30T03:27:02.678Z,60.74
2018-09-30T03:29:31.122Z,61.15
2018-09-30T03:31:59.446Z,61.21
2018-09-30T03:34:27.738Z,61.21
2018-09-30T03:36:56.039Z,61.43
2018-09-30T03:39:24.419Z,61.51
2018-09-30T03:41:52.740Z,61.50
2018-09-30T03:44:21.038Z,61.29
2018-09-30T03:46:49.302Z,61.38
2018-09-30T03:49:17.591Z,61.11
2018-09-30T03:51:45.921Z,61.42
2018-09-30T03:54:14.210Z,61.55
2018-09-30T03:56:42.576Z,61.52
2018-09-30T03:59:10.875Z,61.64
2018-09-30T04:01:39.146Z,61.41
2018-09-30T04:04:07.427Z,61.09
2018-09-30T04:06:35.754Z,60.78
2018-09-30T04:09:04.591Z,61.00
2018-09-30T04:11:32.852Z,61.07
2018-09-30T04:14:01.175Z,60.98
2018-09-30T04:16:29.445Z,60.91
2018-09-30T04:18:57.703Z,61.19
2018-09-30T04:21:26.034Z,60.82
2018-09-30T04:23:59.586Z,60.98
2018-09-30T04:26:27.881Z,61.18
2018-09-30T04:28:56.150Z,61.35
2018-09-30T04:31:24.402Z,61.56
2018-09-30T04:33:52.690Z,61.71
2018-09-30T04:36:20.970Z,61.81
2018-09-30T04:38:49.242Z,61.95
2018-09-30T04:41:17.597Z,61.72
2018-09-30T04:43:45.938Z,61.42
2018-09-30T04:46:14.202Z,61.27
2018-09-30T04:48:42.626Z,61.34
2018-09-30T04:51:10.902Z,61.52
2018-09-30T04:53:39.166Z,61.29
2018-09-30T04:56:07.477Z,61.23
2018-09-30T04:58:35.946Z,61.41
2018-09-30T05:01:04.210Z,61.66
2018-09-30T05:03:32.490Z,61.34
2018-09-30T05:06:00.826Z,61.29
2018-09-30T05:08:29.128Z,61.79
2018-09-30T05:10:57.454Z,61.71
2018-09-30T05:13:25.738Z,62.11
2018-09-30T05:15:54.060Z,62.18
2018-09-30T05:18:22.306Z,61.85
2018-09-30T05:20:50.589Z,62.22
2018-09-30T05:23:18.863Z,62.36
2018-09-30T05:25:47.303Z,62.49
2018-09-30T05:28:15.547Z,62.39
2018-09-30T05:30:43.820Z,62.26
2018-09-30T05:33:12.124Z,62.51
2018-09-30T05:35:40.402Z,62.26
2018-09-30T05:38:08.762Z,62.09
2018-09-30T05:40:37.062Z,62.11
2018-09-30T05:43:05.326Z,62.16
2018-09-30T05:45:33.598Z,61.70
2018-09-30T05:48:01.907Z,61.97
2018-09-30T05:50:30.199Z,61.84
2018-09-30T05:52:58.457Z,62.09
2018-09-30T05:55:26.757Z,62.21
2018-09-30T05:57:55.083Z,62.22
2018-09-30T06:00:23.426Z,62.41
2018-09-30T06:02:51.742Z,62.14
2018-09-30T06:05:20.022Z,62.08
2018-09-30T06:07:48.361Z,62.31
2018-09-30T06:10:16.781Z,62.33
2018-09-30T06:12:45.779Z,62.48
2018-09-30T06:15:14.115Z,62.17
2018-09-30T06:17:42.627Z,62.45
2018-09-30T06:20:11.077Z,62.67
2018-09-30T06:22:39.347Z,62.30
2018-09-30T06:25:07.945Z,62.25
2018-09-30T06:27:36.308Z,62.01
2018-09-30T06:30:04.688Z,61.73
2018-09-30T06:32:33.002Z,61.45
2018-09-30T06:35:01.353Z,61.44
2018-09-30T06:37:29.611Z,61.53
2018-09-30T06:39:58.020Z,61.38
2018-09-30T06:42:26.371Z,61.31
2018-09-30T06:44:54.788Z,61.12
2018-09-30T06:47:23.134Z,60.98
2018-09-30T06:49:51.523Z,61.01
2018-09-30T06:52:19.801Z,60.92
2018-09-30T06:54:48.163Z,60.95
2018-09-30T06:57:16.551Z,60.63
2018-09-30T06:59:44.933Z,60.52
2018-09-30T07:02:15.673Z,60.58
2018-09-30T07:04:44.235Z,60.91
2018-09-30T07:07:12.725Z,61.14
2018-09-30T07:09:41.129Z,60.86
2018-09-30T07:12:09.494Z,60.93
2018-09-30T07:14:37.926Z,60.84
2018-09-30T07:17:06.314Z,60.67
2018-09-30T07:19:34.619Z,60.96
2018-09-30T07:22:02.968Z,60.77
2018-09-30T07:24:31.318Z,60.53
2018-09-30T07:26:59.758Z,60.56
2018-09-30T07:29:28.125Z,60.35
2018-09-30T07:31:56.550Z,60.73
2018-09-30T07:34:25.402Z,60.55
2018-09-30T07:36:53.881Z,60.67
2018-09-30T07:39:22.294Z,60.45
2018-09-30T07:41:50.721Z,59.98
2018-09-30T07:44:19.006Z,59.60
2018-09-30T07:46:47.589Z,59.47
2018-09-30T07:49:15.830Z,59.21
2018-09-30T07:51:50.982Z,59.34
2018-09-30T07:54:19.401Z,59.50
2018-09-30T07:56:48.775Z,59.49
2018-09-30T07:59:17.217Z,59.21
2018-09-30T08:01:45.535Z,59.06
2018-09-30T08:04:18.612Z,59.05
2018-09-30T08:06:46.961Z,59.25
2018-09-30T08:09:15.253Z,59.36
2018-09-30T08:11:43.702Z,59.39
2018-09-30T08:14:11.998Z,59.27
2018-09-30T08:16:40.291Z,59.48
2018-09-30T08:19:08.674Z,59.59
2018-09-30T08:21:37.859Z,59.60
2018-09-30T08:24:06.257Z,59.63
2018-09-30T08:26:34.499Z,59.71
2018-09-30T08:29:02.888Z,59.53
2018-09-30T08:31:31.327Z,59.86
2018-09-30T08:33:59.951Z,59.99
2018-09-30T08:36:28.450Z,59.76
2018-09-30T08:38:56.865Z,59.91
2018-09-30T08:41:25.250Z,59.77
2018-09-30T08:43:53.977Z,60.07
2018-09-30T08:46:22.320Z,60.07
2018-09-30T08:48:50.805Z,59.92
2018-09-30T08:51:19.660Z,59.51
2018-09-30T08:53:48.470Z,59.68
2018-09-30T08:56:17.531Z,59.90
2018-09-30T08:58:45.821Z,59.81
2018-09-30T09:01:14.204Z,59.89
2018-09-30T09:03:42.641Z,59.86
2018-09-30T09:06:11.791Z,60.24
2018-09-30T09:08:40.299Z,59.68
2018-09-30T09:11:10.721Z,60.09
2018-09-30T09:13:39.301Z,60.41
2018-09-30T09:16:07.641Z,60.44
2018-09-30T09:18:41.353Z,60.65
2018-09-30T09:21:09.729Z,60.59
2018-09-30T09:23:38.946Z,60.67
2018-09-30T09:26:07.735Z,60.84
2018-09-30T09:28:36.226Z,61.20
2018-09-30T09:31:04.533Z,60.71
2018-09-30T09:33:32.865Z,60.72
2018-09-30T09:36:01.149Z,60.43
2018-09-30T09:38:29.555Z,60.63
2018-09-30T09:40:57.976Z,60.45
2018-09-30T09:43:26.483Z,60.49
2018-09-30T09:45:54.775Z,60.22
2018-09-30T09:48:23.458Z,60.56
2018-09-30T09:50:52.229Z,60.45
2018-09-30T09:53:20.627Z,60.29
2018-09-30T09:55:49.090Z,59.72
2018-09-30T09:58:17.461Z,59.64
2018-09-30T10:00:46.173Z,59.49
2018-09-30T10:03:16.037Z,59.71
2018-09-30T10:05:45.103Z,59.30
2018-09-30T10:08:13.844Z,59.50
2018-09-30T10:10:42.298Z,59.51
2018-09-30T10:13:10.795Z,59.58
2018-09-30T10:15:39.205Z,59.05
2018-09-30T10:18:07.582Z,58.42
2018-09-30T10:20:35.879Z,58.32
2018-09-30T10:23:04.792Z,58.50
2018-09-30T10:25:33.213Z,58.62
2018-09-30T10:28:03.551Z,58.32
2018-09-30T10:30:32.035Z,58.32
2018-09-30T10:33:00.519Z,58.42
2018-09-30T10:35:28.953Z,58.00
2018-09-30T10:37:57.423Z,57.21
2018-09-30T10:40:25.823Z,57.22
2018-09-30T10:42:54.227Z,56.62
2018-09-30T10:45:22.667Z,57.32
2018-09-30T10:47:51.022Z,57.14
2018-09-30T10:50:19.355Z,57.42
2018-09-30T10:52:47.647Z,57.42
2018-09-30T10:55:15.987Z,57.99
2018-09-30T10:57:44.702Z,58.14
2018-09-30T11:00:13.005Z,58.03
2018-09-30T11:02:41.345Z,57.96
2018-09-30T11:05:09.753Z,57.65
2018-09-30T11:07:38.117Z,57.13
2018-09-30T11:10:07.111Z,57.75
2018-09-30T11:12:35.343Z,57.02
2018-09-30T11:15:03.851Z,56.46
2018-09-30T11:17:32.255Z,56.43
2018-09-30T11:20:01.137Z,57.01
2018-09-30T11:22:29.528Z,56.04
2018-09-30T11:24:58.527Z,55.70
2018-09-30T11:27:27.046Z,55.31
2018-09-30T11:29:56.167Z,54.67
2018-09-30T11:32:24.675Z,53.90
2018-09-30T11:34:54.243Z,53.32
2018-09-30T11:37:22.527Z,53.12
2018-09-30T11:39:50.839Z,53.05
2018-09-30T11:42:19.275Z,53.53
2018-09-30T11:44:48.244Z,52.98
2018-09-30T11:47:16.574Z,52.89
2018-09-30T11:49:45.585Z,52.74
2018-09-30T11:52:14.949Z,52.32
2018-09-30T11:54:43.627Z,52.43
2018-09-30T11:57:13.397Z,51.99
2018-09-30T11:59:42.470Z,52.06
2018-09-30T12:02:11.077Z,51.92
2018-09-30T12:04:39.509Z,52.02
2018-09-30T12:07:07.809Z,52.23
2018-09-30T12:09:38.299Z,51.96
2018-09-30T12:12:06.714Z,51.97
2018-09-30T12:14:35.071Z,51.33
2018-09-30T12:17:03.674Z,51.53
2018-09-30T12:19:32.078Z,51.97
2018-09-30T12:22:00.416Z,51.65
2018-09-30T12:24:28.968Z,50.72
2018-09-30T12:26:57.455Z,50.25
2018-09-30T12:29:25.856Z,50.64
2018-09-30T12:31:54.345Z,51.21
2018-09-30T12:34:22.725Z,51.70
2018-09-30T12:36:51.094Z,51.21
2018-09-30T12:39:19.481Z,50.96
2018-09-30T12:41:47.721Z,50.39
2018-09-30T12:44:16.019Z,50.69
2018-09-30T12:46:44.539Z,50.51
2018-09-30T12:49:12.877Z,50.19
2018-09-30T12:51:41.341Z,49.46
2018-09-30T12:54:09.959Z,49.31
2018-09-30T12:56:38.250Z,49.10
2018-09-30T12:59:06.559Z,49.59
2018-09-30T13:01:34.913Z,49.90
2018-09-30T13:04:03.633Z,49.44
2018-09-30T13:06:31.945Z,49.41
2018-09-30T13:09:00.358Z,48.97
2018-09-30T13:11:28.738Z,49.10
2018-09-30T13:13:57.085Z,48.64
2018-09-30T13:16:25.493Z,48.42
2018-09-30T13:18:53.817Z,48.84
2018-09-30T13:21:22.210Z,48.78
2018-09-30T13:23:50.619Z,48.68
2018-09-30T13:26:19.042Z,48.23
2018-09-30T13:28:47.375Z,48.18
2018-09-30T13:31:16.042Z,48.50
2018-09-30T13:33:44.442Z,48.74
2018-09-30T13:36:12.863Z,48.70
2018-09-30T13:38:41.246Z,48.57
2018-09-30T13:41:10.613Z,48.25
2018-09-30T13:43:38.745Z,47.92
2018-09-30T13:46:07.212Z,47.93
2018-09-30T13:48:35.518Z,47.07
2018-09-30T13:51:03.912Z,47.33
2018-09-30T13:53:32.462Z,47.07
2018-09-30T13:56:00.958Z,47.32
2018-09-30T13:58:29.431Z,47.31
2018-09-30T14:00:58.217Z,47.56
2018-09-30T14:03:26.601Z,47.45
2018-09-30T14:05:54.926Z,47.57
2018-09-30T14:08:23.303Z,46.90
2018-09-30T14:10:51.626Z,46.91
2018-09-30T14:13:19.997Z,47.31
2018-09-30T14:15:48.486Z,47.97
2018-09-30T14:18:16.866Z,47.40
2018-09-30T14:20:45.190Z,47.25
2018-09-30T14:23:13.687Z,47.12
2018-09-30T14:25:42.090Z,47.36
2018-09-30T14:28:10.498Z,47.13
2018-09-30T14:30:38.891Z,47.39
2018-09-30T14:33:07.446Z,47.87
2018-09-30T14:35:35.814Z,47.37
2018-09-30T14:38:04.280Z,47.67
2018-09-30T14:40:32.674Z,47.41
2018-09-30T14:43:01.057Z,46.88
2018-09-30T14:45:29.514Z,46.49
2018-09-30T14:47:58.129Z,46.56
2018-09-30T14:50:26.570Z,46.74
2018-09-30T14:52:54.886Z,47.40
2018-09-30T14:55:23.264Z,47.11
2018-09-30T14:57:51.627Z,47.09
2018-09-30T15:00:20.051Z,47.39
2018-09-30T15:02:48.467Z,47.68
2018-09-30T15:05:16.754Z,47.89
2018-09-30T15:07:45.182Z,47.83
2018-09-30T15:10:14.079Z,48.09
2018-09-30T15:12:42.426Z,47.93
2018-09-30T15:15:10.838Z,47.73
2018-09-30T15:17:45.935Z,47.81
2018-09-30T15:20:14.718Z,47.87
2018-09-30T15:22:43.087Z,48.05
2018-09-30T15:25:11.494Z,48.01
2018-09-30T15:27:39.971Z,47.72
2018-09-30T15:30:08.387Z,47.76
2018-09-30T15:32:36.663Z,48.06
2018-09-30T15:35:05.155Z,47.89
2018-09-30T15:37:33.683Z,48.45
2018-09-30T15:40:03.071Z,48.20
2018-09-30T15:42:31.518Z,48.46
2018-09-30T15:44:59.859Z,48.62
2018-09-30T15:47:28.199Z,48.62
2018-09-30T15:49:56.625Z,48.84
2018-09-30T15:52:25.069Z,49.14
2018-09-30T15:54:53.882Z,48.88
2018-09-30T15:57:22.580Z,49.12
2018-09-30T15:59:51.000Z,49.47
2018-09-30T16:02:19.521Z,49.18
2018-09-30T16:04:47.875Z,49.38
2018-09-30T16:07:16.161Z,49.93
2018-09-30T16:09:44.461Z,49.96
2018-09-30T16:12:15.781Z,50.16
2018-09-30T16:14:44.068Z,50.16
2018-09-30T16:17:12.468Z,50.61
2018-09-30T16:19:40.841Z,51.10
2018-09-30T16:22:09.263Z,51.22
2018-09-30T16:24:37.646Z,51.33
2018-09-30T16:27:06.246Z,51.33
2018-09-30T16:29:34.543Z,51.71
2018-09-30T16:32:03.002Z,52.04
2018-09-30T16:34:31.323Z,51.95
2018-09-30T16:36:59.726Z,52.33
2018-09-30T16:39:28.149Z,52.86
2018-09-30T16:41:56.915Z,53.35
2018-09-30T16:44:25.275Z,53.26
2018-09-30T16:46:53.548Z,53.96
2018-09-30T16:49:21.875Z,54.23
2018-09-30T16:51:50.466Z,54.31
2018-09-30T16:54:19.279Z,54.73
2018-09-30T16:56:47.702Z,55.25
2018-09-30T16:59:15.949Z,55.35
2018-09-30T17:01:44.281Z,55.93
2018-09-30T17:04:12.786Z,56.34
2018-09-30T17:06:41.148Z,56.58
2018-09-30T17:09:09.423Z,57.55
2018-09-30T17:11:37.997Z,58.27
2018-09-30T17:14:06.383Z,58.88
2018-09-30T17:16:34.862Z,58.76
2018-09-30T17:19:03.550Z,57.79
2018-09-30T17:21:31.939Z,58.86
2018-09-30T17:24:00.213Z,59.10
2018-09-30T17:26:28.723Z,58.66
2018-09-30T17:28:57.051Z,59.39
2018-09-30T17:31:25.467Z,59.42
2018-09-30T17:33:54.017Z,59.27
2018-09-30T17:36:22.578Z,59.59
2018-09-30T17:38:50.878Z,59.52
2018-09-30T17:41:19.295Z,60.08
2018-09-30T17:43:47.659Z,60.16
2018-09-30T17:46:16.012Z,60.22
2018-09-30T17:48:44.505Z,59.73
2018-09-30T17:51:12.887Z,60.02
2018-09-30T17:53:41.257Z,60.62
2018-09-30T17:56:09.619Z,60.73
2018-09-30T17:58:38.011Z,61.13
2018-09-30T18:01:06.597Z,60.91
2018-09-30T18:03:35.102Z,60.51
2018-09-30T18:06:03.462Z,61.26
2018-09-30T18:08:31.847Z,61.79
2018-09-30T18:11:00.360Z,61.92
2018-09-30T18:13:28.629Z,62.47
2018-09-30T18:15:56.943Z,62.42
2018-09-30T18:18:25.382Z,62.29
2018-09-30T18:20:53.753Z,62.54
2018-09-30T18:23:22.109Z,62.70
2018-09-30T18:25:50.497Z,62.67
2018-09-30T18:28:18.843Z,63.07
2018-09-30T18:30:47.237Z,62.86
2018-09-30T18:33:15.717Z,63.38
2018-09-30T18:35:44.089Z,63.49
2018-09-30T18:38:12.465Z,63.42
2018-09-30T18:40:43.705Z,63.25
2018-09-30T18:43:12.474Z,62.62
2018-09-30T18:45:41.036Z,63.25
2018-09-30T18:48:09.970Z,63.58
2018-09-30T18:50:38.491Z,64.09
2018-09-30T18:53:07.255Z,64.55
2018-09-30T18:55:41.994Z,65.20
2018-09-30T18:58:10.367Z,65.57
2018-09-30T19:00:38.713Z,65.34
2018-09-30T19:03:07.079Z,65.27
2018-09-30T19:05:35.432Z,65.51
2018-09-30T19:08:03.763Z,65.78
2018-09-30T19:10:32.183Z,65.54
2018-09-30T19:13:00.521Z,66.15
2018-09-30T19:15:28.905Z,66.31
2018-09-30T19:17:57.257Z,65.92
2018-09-30T19:20:25.687Z,65.71
2018-09-30T19:22:53.986Z,65.82
2018-09-30T19:25:22.315Z,65.79
2018-09-30T19:27:50.627Z,66.15
2018-09-30T19:30:18.947Z,65.84
2018-09-30T19:32:47.420Z,65.81
2018-09-30T19:35:15.855Z,66.15
2018-09-30T19:37:44.187Z,66.61
2018-09-30T19:40:12.665Z,66.43
2018-09-30T19:42:41.059Z,66.66
2018-09-30T19:45:09.380Z,66.43
2018-09-30T19:47:37.703Z,66.23
2018-09-30T19:50:06.056Z,66.29
2018-09-30T19:52:34.471Z,66.34
2018-09-30T19:55:02.946Z,66.53
2018-09-30T19:57:31.287Z,66.67
2018-09-30T19:59:59.794Z,66.42
2018-09-30T20:02:28.226Z,66.47
2018-09-30T20:04:56.550Z,66.56
2018-09-30T20:07:24.950Z,66.69
2018-09-30T20:09:53.784Z,66.49
2018-09-30T20:12:22.213Z,66.79
2018-09-30T20:14:51.108Z,66.81
2018-09-30T20:17:19.584Z,67.41
2018-09-30T20:19:47.975Z,67.41
2018-09-30T20:22:16.346Z,66.73
2018-09-30T20:24:44.723Z,66.92
2018-09-30T20:27:12.966Z,67.13
2018-09-30T20:29:41.298Z,67.47
2018-09-30T20:32:09.850Z,67.44
2018-09-30T20:34:38.163Z,67.97
2018-09-30T20:37:06.574Z,68.00
2018-09-30T20:39:34.941Z,68.33
2018-09-30T20:42:03.222Z,68.37
2018-09-30T20:44:31.541Z,67.92
2018-09-30T20:47:00.686Z,68.04
2018-09-30T20:49:29.101Z,67.68
2018-09-30T20:51:57.504Z,67.61
2018-09-30T20:54:25.826Z,67.64
2018-09-30T20:56:54.880Z,67.78
2018-09-30T20:59:23.461Z,67.45
2018-09-30T21:01:51.856Z,67.94
2018-09-30T21:04:20.134Z,67.72
2018-09-30T21:06:48.405Z,68.15
2018-09-30T21:09:18.203Z,67.96
2018-09-30T21:11:46.580Z,68.21
2018-09-30T21:14:14.958Z,67.60
2018-09-30T21:16:43.466Z,67.72
2018-09-30T21:19:11.907Z,68.16
2018-09-30T21:21:40.381Z,67.89
2018-09-30T21:24:09.494Z,68.15
2018-09-30T21:26:37.811Z,68.11
2018-09-30T21:29:06.130Z,67.93
2018-09-30T21:31:34.561Z,68.40
2018-09-30T21:34:02.900Z,68.47
2018-09-30T21:36:31.186Z,68.28
2018-09-30T21:38:59.730Z,68.24
2018-09-30T21:41:28.138Z,67.97
2018-09-30T21:43:56.617Z,68.31
2018-09-30T21:46:25.018Z,68.41
2018-09-30T21:48:53.450Z,68.30
2018-09-30T21:51:21.632Z,68.46
2018-09-30T21:53:50.062Z,68.92
2018-09-30T21:56:18.421Z,68.63
2018-09-30T21:58:46.882Z,68.67
2018-09-30T22:01:15.677Z,68.26
2018-09-30T22:03:43.937Z,68.70
2018-09-30T22:06:12.223Z,68.28
2018-09-30T22:08:40.537Z,68.07
2018-09-30T22:11:08.855Z,69.10
2018-09-30T22:13:37.171Z,69.16
2018-09-30T22:16:05.587Z,69.49
2018-09-30T22:18:33.912Z,69.56
2018-09-30T22:21:02.302Z,69.39
2018-09-30T22:23:30.634Z,69.55
2018-09-30T22:25:58.928Z,68.96
2018-09-30T22:28:27.238Z,68.84
2018-09-30T22:30:55.555Z,68.87
2018-09-30T22:33:23.875Z,69.31
2018-09-30T22:35:52.188Z,69.18
2018-09-30T22:38:20.506Z,69.18
2018-09-30T22:40:48.934Z,68.67
2018-09-30T22:43:17.289Z,68.68
2018-09-30T22:45:45.782Z,68.42
2018-09-30T22:48:14.143Z,68.09
2018-09-30T22:50:42.550Z,67.80
2018-09-30T22:53:11.031Z,67.46
2018-09-30T22:55:39.462Z,67.52
2018-09-30T22:58:07.726Z,67.17
2018-09-30T23:00:36.042Z,67.15
2018-09-30T23:03:04.513Z,67.53
2018-09-30T23:05:32.788Z,67.42
2018-09-30T23:08:01.200Z,67.62
2018-09-30T23:10:29.550Z,67.67
2018-09-30T23:12:58.040Z,67.98
2018-09-30T23:15:26.542Z,68.07
2018-09-30T23:17:54.990Z,67.88
2018-09-30T23:20:23.261Z,67.83
2018-09-30T23:22:51.562Z,67.40
2018-09-30T23:25:19.927Z,67.73
2018-09-30T23:27:48.273Z,67.99
2018-09-30T23:30:16.590Z,67.75
2018-09-30T23:32:44.926Z,67.86
2018-09-30T23:35:13.226Z,67.82
2018-09-30T23:37:41.578Z,67.98
2018-09-30T23:40:09.905Z,67.99
2018-09-30T23:42:38.463Z,67.85
2018-09-30T23:45:06.960Z,67.94
2018-09-30T23:47:35.295Z,68.19
2018-09-30T23:50:03.657Z,68.24
2018-09-30T23:52:31.978Z,67.89
2018-09-30T23:55:00.353Z,67.86
2018-09-30T23:57:28.623Z,67.81
2018-09-30T23:59:57.335Z,67.97
